createdAt,value
2018-09-04T00:01:11.928Z,99.99
2018-09-04T00:02:11.851Z,99.99
2018-09-04T00:04:04.615Z,99.99
2018-09-04T00:05:04.558Z,99.99
2018-09-04T00:06:57.333Z,99.99
2018-09-04T00:07:57.258Z,99.99
2018-09-04T00:09:50.022Z,99.99
2018-09-04T00:10:49.956Z,99.99
2018-09-04T00:12:42.743Z,99.99
2018-09-04T00:13:42.657Z,99.99
2018-09-04T00:15:35.431Z,99.99
2018-09-04T00:16:35.367Z,99.99
2018-09-04T00:18:28.159Z,99.99
2018-09-04T00:19:28.082Z,99.99
2018-09-04T00:21:20.882Z,99.99
2018-09-04T00:22:20.809Z,99.99
2018-09-04T00:24:13.571Z,99.99
2018-09-04T00:25:13.525Z,99.99
2018-09-04T00:27:06.302Z,99.99
2018-09-04T00:28:06.225Z,99.99
2018-09-04T00:29:58.988Z,99.99
2018-09-04T00:30:58.931Z,99.99
2018-09-04T00:32:51.730Z,99.99
2018-09-04T00:33:51.651Z,99.99
2018-09-04T00:35:43.435Z,99.99
2018-09-04T00:36:43.366Z,99.99
2018-09-04T00:38:36.154Z,99.99
2018-09-04T00:39:36.094Z,99.99
2018-09-04T00:41:28.850Z,99.99
2018-09-04T00:42:28.778Z,99.99
2018-09-04T00:44:21.538Z,99.99
2018-09-04T00:45:21.479Z,99.99
2018-09-04T00:47:14.252Z,99.99
2018-09-04T00:48:14.181Z,99.99
2018-09-04T00:50:06.977Z,99.99
2018-09-04T00:51:06.920Z,99.99
2018-09-04T00:52:59.696Z,99.99
2018-09-04T00:53:59.620Z,99.99
2018-09-04T00:55:52.380Z,99.99
2018-09-04T00:56:52.317Z,99.99
2018-09-04T00:58:45.164Z,99.99
2018-09-04T00:59:45.046Z,99.99
2018-09-04T01:01:36.827Z,99.99
2018-09-04T01:02:36.756Z,99.99
2018-09-04T01:04:29.515Z,99.99
2018-09-04T01:05:29.468Z,99.99
2018-09-04T01:07:22.289Z,99.99
2018-09-04T01:08:22.211Z,99.99
2018-09-04T01:10:15.013Z,99.99
2018-09-04T01:11:14.950Z,99.99
2018-09-04T01:13:07.732Z,99.99
2018-09-04T01:14:07.659Z,99.99
2018-09-04T01:16:00.421Z,99.99
2018-09-04T01:17:00.346Z,99.99
2018-09-04T01:18:53.136Z,99.99
2018-09-04T01:19:53.069Z,99.99
2018-09-04T01:21:44.882Z,99.99
2018-09-04T01:22:44.806Z,99.99
2018-09-04T01:24:37.581Z,99.99
2018-09-04T01:25:37.504Z,99.99
2018-09-04T01:27:30.288Z,99.99
2018-09-04T01:28:30.218Z,99.99
2018-09-04T01:30:22.979Z,99.99
2018-09-04T01:31:22.932Z,99.99
2018-09-04T01:33:15.693Z,99.99
2018-09-04T01:34:15.628Z,99.99
2018-09-04T01:36:08.432Z,99.99
2018-09-04T01:37:08.389Z,99.99
2018-09-04T01:39:01.177Z,99.99
2018-09-04T01:40:01.099Z,99.99
2018-09-04T01:41:53.874Z,99.99
2018-09-04T01:42:53.805Z,99.99
2018-09-04T01:44:46.584Z,99.99
2018-09-04T01:45:46.522Z,99.99
2018-09-04T01:47:39.307Z,99.99
2018-09-04T01:48:39.236Z,99.99
2018-09-04T01:50:32.010Z,99.99
2018-09-04T01:51:31.941Z,99.99
2018-09-04T01:53:24.716Z,99.99
2018-09-04T01:54:24.640Z,99.99
2018-09-04T01:56:17.415Z,99.99
2018-09-04T01:57:17.341Z,99.99
2018-09-04T01:59:09.316Z,99.99
2018-09-04T02:00:09.243Z,99.99
2018-09-04T02:02:02.015Z,99.99
2018-09-04T02:03:01.955Z,99.99
2018-09-04T02:04:54.714Z,99.99
2018-09-04T02:05:54.649Z,99.99
2018-09-04T02:07:47.480Z,99.99
2018-09-04T02:08:47.410Z,99.99
2018-09-04T02:10:40.183Z,99.99
2018-09-04T02:11:40.110Z,99.99
2018-09-04T02:13:32.885Z,99.99
2018-09-04T02:14:32.815Z,99.99
2018-09-04T02:16:25.592Z,99.99
2018-09-04T02:17:25.530Z,99.99
2018-09-04T02:19:18.313Z,99.99
2018-09-04T02:20:18.239Z,99.99
2018-09-04T02:22:11.023Z,99.99
2018-09-04T02:23:10.968Z,99.99
2018-09-04T02:25:02.819Z,99.99
2018-09-04T02:26:02.726Z,99.99
2018-09-04T02:27:55.500Z,99.99
2018-09-04T02:28:55.426Z,99.99
2018-09-04T02:30:48.200Z,99.99
2018-09-04T02:31:48.131Z,99.99
2018-09-04T02:33:40.935Z,99.99
2018-09-04T02:34:40.840Z,99.99
2018-09-04T02:36:33.611Z,99.99
2018-09-04T02:37:33.540Z,99.99
2018-09-04T02:39:26.334Z,99.99
2018-09-04T02:40:26.257Z,99.99
2018-09-04T02:42:19.091Z,99.99
2018-09-04T02:43:18.970Z,99.99
2018-09-04T02:45:11.754Z,99.99
2018-09-04T02:46:11.719Z,99.99
2018-09-04T02:48:04.475Z,99.99
2018-09-04T02:49:04.391Z,99.99
2018-09-04T02:50:57.148Z,99.99
2018-09-04T02:51:57.087Z,99.99
2018-09-04T02:53:49.932Z,99.99
2018-09-04T02:54:49.843Z,99.99
2018-09-04T02:56:42.614Z,99.99
2018-09-04T02:57:42.539Z,99.99
2018-09-04T02:59:35.347Z,99.99
2018-09-04T03:00:35.260Z,99.99
2018-09-04T03:02:28.070Z,99.99
2018-09-04T03:03:27.975Z,99.99
2018-09-04T03:05:20.729Z,99.99
2018-09-04T03:06:20.680Z,99.99
2018-09-04T03:08:13.480Z,99.99
2018-09-04T03:09:13.397Z,99.99
2018-09-04T03:11:06.162Z,99.99
2018-09-04T03:12:06.101Z,99.99
2018-09-04T03:13:58.942Z,99.99
2018-09-04T03:14:58.792Z,99.99
2018-09-04T03:16:51.558Z,99.99
2018-09-04T03:17:51.487Z,99.99
2018-09-04T03:19:44.257Z,99.99
2018-09-04T03:20:44.250Z,99.99
2018-09-04T03:22:36.956Z,99.99
2018-09-04T03:23:36.887Z,99.99
2018-09-04T03:25:29.665Z,99.99
2018-09-04T03:26:29.592Z,99.99
2018-09-04T03:28:22.364Z,99.99
2018-09-04T03:29:22.295Z,99.99
2018-09-04T03:31:15.067Z,99.99
2018-09-04T03:32:14.993Z,99.99
2018-09-04T03:34:07.790Z,99.99
2018-09-04T03:35:07.701Z,99.99
2018-09-04T03:37:00.467Z,99.99
2018-09-04T03:38:00.400Z,99.99
2018-09-04T03:39:53.178Z,99.99
2018-09-04T03:40:53.099Z,99.99
2018-09-04T03:42:45.868Z,99.99
2018-09-04T03:43:45.805Z,99.99
2018-09-04T03:45:38.597Z,99.99
2018-09-04T03:46:38.517Z,99.99
2018-09-04T03:48:31.294Z,99.99
2018-09-04T03:49:31.213Z,99.99
2018-09-04T03:51:23.978Z,99.99
2018-09-04T03:52:23.940Z,99.99
2018-09-04T03:54:16.689Z,99.99
2018-09-04T03:55:16.608Z,99.99
2018-09-04T03:57:09.387Z,99.99
2018-09-04T03:58:09.312Z,99.99
2018-09-04T04:00:02.113Z,99.99
2018-09-04T04:01:02.043Z,99.99
2018-09-04T04:02:54.822Z,99.99
2018-09-04T04:03:54.745Z,99.99
2018-09-04T04:05:47.563Z,99.99
2018-09-04T04:06:47.470Z,99.99
2018-09-04T04:08:40.703Z,99.99
2018-09-04T04:09:40.625Z,99.99
2018-09-04T04:11:33.401Z,99.99
2018-09-04T04:12:33.324Z,99.99
2018-09-04T04:14:26.159Z,99.99
2018-09-04T04:15:26.060Z,99.99
2018-09-04T04:17:18.851Z,99.99
2018-09-04T04:18:18.776Z,99.99
2018-09-04T04:20:11.566Z,99.99
2018-09-04T04:21:11.478Z,99.99
2018-09-04T04:23:04.255Z,99.99
2018-09-04T04:24:04.263Z,99.99
2018-09-04T04:25:56.993Z,99.99
2018-09-04T04:26:56.919Z,99.99
2018-09-04T04:28:49.694Z,99.99
2018-09-04T04:29:49.609Z,99.99
2018-09-04T04:31:42.396Z,99.99
2018-09-04T04:32:42.332Z,99.99
2018-09-04T04:34:35.123Z,99.99
2018-09-04T04:35:35.045Z,99.99
2018-09-04T04:37:27.820Z,99.99
2018-09-04T04:38:27.757Z,99.99
2018-09-04T04:40:20.544Z,99.99
2018-09-04T04:41:20.469Z,99.99
2018-09-04T04:43:13.229Z,99.99
2018-09-04T04:44:13.181Z,99.99
2018-09-04T04:46:05.946Z,99.99
2018-09-04T04:47:05.868Z,99.99
2018-09-04T04:48:58.662Z,99.99
2018-09-04T04:49:58.570Z,99.99
2018-09-04T04:51:51.366Z,99.99
2018-09-04T04:52:51.289Z,99.99
2018-09-04T04:54:44.083Z,99.99
2018-09-04T04:55:43.999Z,99.99
2018-09-04T04:57:36.788Z,99.99
2018-09-04T04:58:36.734Z,99.99
2018-09-04T05:00:29.651Z,99.99
2018-09-04T05:01:29.425Z,99.99
2018-09-04T05:03:22.200Z,99.99
2018-09-04T05:04:22.156Z,99.99
2018-09-04T05:06:14.918Z,99.99
2018-09-04T05:07:14.837Z,99.99
2018-09-04T05:09:07.623Z,99.99
2018-09-04T05:10:07.549Z,99.99
2018-09-04T05:12:00.333Z,99.99
2018-09-04T05:13:00.338Z,99.99
2018-09-04T05:14:53.040Z,99.99
2018-09-04T05:15:52.967Z,99.99
2018-09-04T05:17:45.756Z,99.99
2018-09-04T05:18:45.704Z,99.99
2018-09-04T05:20:38.474Z,99.99
2018-09-04T05:21:38.394Z,99.99
2018-09-04T05:23:31.161Z,99.99
2018-09-04T05:24:31.098Z,99.99
2018-09-04T05:26:22.964Z,99.99
2018-09-04T05:27:22.884Z,99.99
2018-09-04T05:29:15.689Z,99.99
2018-09-04T05:30:15.591Z,99.99
2018-09-04T05:32:08.357Z,99.99
2018-09-04T05:33:08.291Z,99.99
2018-09-04T05:35:01.079Z,99.99
2018-09-04T05:36:01.007Z,99.99
2018-09-04T05:37:53.784Z,99.99
2018-09-04T05:38:53.735Z,99.99
2018-09-04T05:40:46.492Z,99.99
2018-09-04T05:41:46.421Z,99.99
2018-09-04T05:43:39.224Z,99.99
2018-09-04T05:44:39.155Z,99.99
2018-09-04T05:46:31.932Z,99.99
2018-09-04T05:47:31.857Z,99.99
2018-09-04T05:49:24.646Z,99.99
2018-09-04T05:50:24.560Z,99.99
2018-09-04T05:52:17.382Z,99.99
2018-09-04T05:53:17.322Z,99.99
2018-09-04T05:55:10.173Z,99.99
2018-09-04T05:56:10.027Z,99.99
2018-09-04T05:58:02.802Z,99.99
2018-09-04T05:59:02.804Z,99.99
2018-09-04T06:00:55.527Z,99.99
2018-09-04T06:01:55.519Z,99.99
2018-09-04T06:03:48.268Z,99.99
2018-09-04T06:04:48.203Z,99.99
2018-09-04T06:06:40.983Z,99.99
2018-09-04T06:07:40.912Z,99.99
2018-09-04T06:09:33.717Z,99.99
2018-09-04T06:10:33.619Z,99.99
2018-09-04T06:12:26.418Z,99.99
2018-09-04T06:13:26.350Z,99.99
2018-09-04T06:15:19.166Z,99.99
2018-09-04T06:16:19.077Z,99.99
2018-09-04T06:18:11.853Z,99.99
2018-09-04T06:19:11.781Z,99.99
2018-09-04T06:21:04.577Z,99.99
2018-09-04T06:22:04.507Z,99.99
2018-09-04T06:23:57.278Z,99.99
2018-09-04T06:24:57.284Z,99.99
2018-09-04T06:26:49.991Z,99.99
2018-09-04T06:27:49.913Z,99.99
2018-09-04T06:29:42.115Z,99.99
2018-09-04T06:30:41.810Z,99.99
2018-09-04T06:32:34.552Z,94.86
2018-09-04T06:33:34.500Z,91.66
2018-09-04T06:35:27.347Z,88.75
2018-09-04T06:36:27.221Z,87.10
2018-09-04T06:38:20.025Z,83.89
2018-09-04T06:39:19.929Z,81.74
2018-09-04T06:41:12.716Z,78.97
2018-09-04T06:42:12.639Z,78.58
2018-09-04T06:44:05.429Z,78.19
2018-09-04T06:45:05.372Z,76.67
2018-09-04T06:46:58.172Z,75.05
2018-09-04T06:47:58.101Z,74.96
2018-09-04T06:49:50.873Z,74.12
2018-09-04T06:50:50.811Z,73.40
2018-09-04T06:52:43.605Z,72.56
2018-09-04T06:53:43.535Z,72.89
2018-09-04T06:55:36.332Z,71.78
2018-09-04T06:56:36.267Z,71.72
2018-09-04T06:58:29.052Z,71.27
2018-09-04T06:59:28.993Z,71.47
2018-09-04T07:01:21.783Z,69.94
2018-09-04T07:02:21.713Z,70.04
2018-09-04T07:04:14.504Z,70.30
2018-09-04T07:05:14.435Z,69.94
2018-09-04T07:07:07.225Z,69.75
2018-09-04T07:08:07.159Z,69.94
2018-09-04T07:09:59.960Z,69.81
2018-09-04T07:10:59.903Z,69.58
2018-09-04T07:12:52.720Z,72.78
2018-09-04T07:13:52.651Z,74.21
2018-09-04T07:15:45.439Z,74.92
2018-09-04T07:16:45.418Z,73.79
2018-09-04T07:18:38.675Z,71.47
2018-09-04T07:19:38.602Z,69.91
2018-09-04T07:21:31.397Z,69.56
2018-09-04T07:22:31.328Z,68.80
2018-09-04T07:24:24.204Z,68.80
2018-09-04T07:25:24.054Z,67.83
2018-09-04T07:27:16.877Z,68.52
2018-09-04T07:28:16.835Z,68.29
2018-09-04T07:30:09.572Z,67.38
2018-09-04T07:31:09.588Z,66.99
2018-09-04T07:33:02.314Z,66.08
2018-09-04T07:34:02.232Z,66.37
2018-09-04T07:35:55.034Z,67.57
2018-09-04T07:36:54.974Z,67.12
2018-09-04T07:38:47.770Z,65.69
2018-09-04T07:39:47.704Z,65.69
2018-09-04T07:41:40.488Z,64.75
2018-09-04T07:42:40.419Z,64.55
2018-09-04T07:44:33.218Z,64.00
2018-09-04T07:45:33.191Z,63.57
2018-09-04T07:47:25.954Z,64.22
2018-09-04T07:48:25.890Z,64.75
2018-09-04T07:50:18.678Z,63.87
2018-09-04T07:51:18.623Z,64.22
2018-09-04T07:53:10.483Z,68.93
2018-09-04T07:54:10.411Z,67.60
2018-09-04T07:56:03.225Z,66.89
2018-09-04T07:57:03.155Z,66.44
2018-09-04T07:58:55.059Z,64.65
2018-09-04T07:59:55.001Z,62.89
2018-09-04T08:01:47.823Z,64.42
2018-09-04T08:02:47.763Z,65.46
2018-09-04T08:04:40.549Z,64.19
2018-09-04T08:05:40.488Z,63.18
2018-09-04T08:07:33.307Z,64.71
2018-09-04T08:08:33.275Z,63.18
2018-09-04T08:10:26.036Z,64.91
2018-09-04T08:11:25.975Z,65.98
2018-09-04T08:13:18.787Z,64.36
2018-09-04T08:14:18.711Z,63.60
2018-09-04T08:16:11.555Z,65.56
2018-09-04T08:17:11.462Z,64.03
2018-09-04T08:19:04.253Z,62.92
2018-09-04T08:20:04.208Z,62.07
2018-09-04T08:21:56.998Z,62.13
2018-09-04T08:22:56.935Z,62.53
2018-09-04T08:24:49.749Z,61.65
2018-09-04T08:25:49.687Z,61.16
2018-09-04T08:27:42.508Z,61.74
2018-09-04T08:28:42.429Z,61.84
2018-09-04T08:30:35.219Z,62.63
2018-09-04T08:31:35.169Z,64.62
2018-09-04T08:33:27.971Z,65.66
2018-09-04T08:34:27.904Z,65.36
2018-09-04T08:36:20.736Z,66.99
2018-09-04T08:37:20.668Z,66.50
2018-09-04T08:39:13.511Z,65.98
2018-09-04T08:40:13.408Z,65.40
2018-09-04T08:42:06.221Z,64.32
2018-09-04T08:43:06.174Z,65.01
2018-09-04T08:44:58.952Z,63.48
2018-09-04T08:45:58.887Z,63.34
2018-09-04T08:47:51.803Z,62.30
2018-09-04T08:48:51.620Z,62.02
2018-09-04T08:50:44.524Z,64.97
2018-09-04T08:51:44.360Z,64.97
2018-09-04T08:53:37.187Z,65.85
2018-09-04T08:54:37.098Z,65.53
2018-09-04T08:56:29.917Z,62.99
2018-09-04T08:57:29.849Z,61.43
2018-09-04T08:59:22.638Z,60.11
2018-09-04T09:00:22.607Z,59.14
2018-09-04T09:02:15.392Z,60.41
2018-09-04T09:03:15.328Z,59.43
2018-09-04T09:05:07.198Z,59.46
2018-09-04T09:06:07.134Z,59.03
2018-09-04T09:07:59.934Z,58.62
2018-09-04T09:08:59.875Z,60.31
2018-09-04T09:10:52.654Z,58.68
2018-09-04T09:11:52.637Z,57.82
2018-09-04T09:13:45.423Z,57.66
2018-09-04T09:14:45.350Z,56.41
2018-09-04T09:16:38.205Z,57.56
2018-09-04T09:17:38.083Z,57.04
2018-09-04T09:19:30.896Z,57.34
2018-09-04T09:20:30.833Z,57.21
2018-09-04T09:22:23.639Z,60.49
2018-09-04T09:23:23.580Z,61.07
2018-09-04T09:25:16.362Z,61.33
2018-09-04T09:26:16.315Z,59.86
2018-09-04T09:28:09.118Z,59.86
2018-09-04T09:29:09.054Z,60.08
2018-09-04T09:31:01.851Z,59.07
2018-09-04T09:32:01.790Z,57.60
2018-09-04T09:33:54.624Z,57.50
2018-09-04T09:34:54.551Z,57.67
2018-09-04T09:36:47.591Z,57.48
2018-09-04T09:37:47.280Z,58.06
2018-09-04T09:39:40.067Z,59.08
2018-09-04T09:40:40.042Z,59.40
2018-09-04T09:42:32.834Z,58.13
2018-09-04T09:43:32.820Z,59.20
2018-09-04T09:45:25.565Z,58.75
2018-09-04T09:46:25.513Z,58.28
2018-09-04T09:48:18.485Z,57.07
2018-09-04T09:49:18.431Z,55.80
2018-09-04T09:51:11.206Z,56.58
2018-09-04T09:52:11.161Z,55.99
2018-09-04T09:54:04.038Z,56.79
2018-09-04T09:55:03.927Z,57.48
2018-09-04T09:56:56.755Z,56.92
2018-09-04T09:57:56.673Z,58.36
2018-09-04T09:59:49.572Z,56.70
2018-09-04T10:00:49.426Z,57.35
2018-09-04T10:02:42.320Z,58.52
2018-09-04T10:03:42.180Z,58.30
2018-09-04T10:05:34.950Z,59.34
2018-09-04T10:06:34.896Z,59.96
2018-09-04T10:08:27.717Z,58.91
2018-09-04T10:09:27.651Z,57.74
2018-09-04T10:11:21.331Z,58.79
2018-09-04T10:12:21.238Z,60.16
2018-09-04T10:14:14.073Z,59.99
2018-09-04T10:15:14.004Z,59.38
2018-09-04T10:17:06.814Z,60.32
2018-09-04T10:18:06.726Z,60.25
2018-09-04T10:19:58.704Z,60.52
2018-09-04T10:20:58.566Z,60.81
2018-09-04T10:22:51.385Z,60.84
2018-09-04T10:23:51.329Z,60.16
2018-09-04T10:25:44.121Z,60.42
2018-09-04T10:26:44.078Z,61.20
2018-09-04T10:28:36.882Z,60.55
2018-09-04T10:29:36.792Z,58.79
2018-09-04T10:31:29.574Z,60.39
2018-09-04T10:32:29.518Z,60.42
2018-09-04T10:34:22.326Z,59.93
2018-09-04T10:35:22.267Z,59.93
2018-09-04T10:37:14.102Z,60.13
2018-09-04T10:38:14.050Z,59.34
2018-09-04T10:40:06.863Z,60.91
2018-09-04T10:41:06.785Z,61.01
2018-09-04T10:42:59.596Z,60.68
2018-09-04T10:43:59.519Z,59.05
2018-09-04T10:45:52.331Z,58.11
2018-09-04T10:46:52.272Z,58.56
2018-09-04T10:48:45.068Z,59.18
2018-09-04T10:49:44.993Z,58.79
2018-09-04T10:51:38.660Z,58.03
2018-09-04T10:52:38.615Z,57.13
2018-09-04T10:54:31.408Z,58.40
2018-09-04T10:55:31.383Z,57.68
2018-09-04T10:57:24.129Z,58.83
2018-09-04T10:58:24.069Z,59.12
2018-09-04T11:00:16.862Z,59.38
2018-09-04T11:01:16.794Z,59.47
2018-09-04T11:03:09.590Z,58.91
2018-09-04T11:04:09.515Z,58.26
2018-09-04T11:06:02.343Z,57.31
2018-09-04T11:07:02.273Z,57.50
2018-09-04T11:08:55.145Z,57.03
2018-09-04T11:09:55.148Z,58.76
2018-09-04T11:11:47.802Z,60.10
2018-09-04T11:12:47.742Z,60.06
2018-09-04T11:14:40.550Z,62.25
2018-09-04T11:15:40.481Z,61.96
2018-09-04T11:17:33.277Z,62.70
2018-09-04T11:18:33.207Z,62.60
2018-09-04T11:20:25.055Z,62.83
2018-09-04T11:21:24.991Z,62.63
2018-09-04T11:23:17.787Z,62.25
2018-09-04T11:24:17.770Z,62.90
2018-09-04T11:26:09.648Z,64.07
2018-09-04T11:27:09.605Z,63.26
2018-09-04T11:29:02.395Z,65.40
2018-09-04T11:30:02.357Z,64.29
2018-09-04T11:31:55.100Z,65.66
2018-09-04T11:32:55.037Z,65.46
2018-09-04T11:34:47.862Z,66.69
2018-09-04T11:35:47.795Z,65.53
2018-09-04T11:37:40.571Z,65.33
2018-09-04T11:38:40.510Z,66.47
2018-09-04T11:40:33.462Z,65.63
2018-09-04T11:41:33.331Z,65.14
2018-09-04T11:43:26.111Z,64.39
2018-09-04T11:44:26.044Z,64.39
2018-09-04T11:46:18.880Z,64.00
2018-09-04T11:47:18.776Z,63.52
2018-09-04T11:49:11.601Z,61.77
2018-09-04T11:50:11.526Z,62.93
2018-09-04T11:52:04.362Z,64.59
2018-09-04T11:53:04.289Z,65.40
2018-09-04T11:54:57.095Z,62.67
2018-09-04T11:55:57.023Z,62.57
2018-09-04T11:57:49.871Z,63.45
2018-09-04T11:58:49.818Z,63.06
2018-09-04T12:00:42.613Z,62.96
2018-09-04T12:01:42.550Z,61.90
2018-09-04T12:03:35.368Z,63.32
2018-09-04T12:04:35.271Z,65.37
2018-09-04T12:06:27.290Z,64.59
2018-09-04T12:07:27.235Z,63.81
2018-09-04T12:09:20.059Z,65.66
2018-09-04T12:10:20.011Z,64.17
2018-09-04T12:12:11.847Z,64.65
2018-09-04T12:13:11.812Z,64.56
2018-09-04T12:15:04.572Z,66.99
2018-09-04T12:16:04.511Z,65.20
2018-09-04T12:17:57.369Z,66.66
2018-09-04T12:18:57.353Z,65.53
2018-09-04T12:20:50.288Z,64.69
2018-09-04T12:21:50.045Z,65.66
2018-09-04T12:23:43.283Z,68.77
2018-09-04T12:24:42.871Z,67.21
2018-09-04T12:26:35.665Z,68.90
2018-09-04T12:27:35.808Z,67.15
2018-09-04T12:29:28.411Z,65.53
2018-09-04T12:30:28.320Z,65.43
2018-09-04T12:32:21.293Z,65.14
2018-09-04T12:33:21.231Z,65.92
2018-09-04T12:35:14.058Z,67.05
2018-09-04T12:36:13.993Z,67.15
2018-09-04T12:38:06.765Z,65.79
2018-09-04T12:39:06.702Z,66.56
2018-09-04T12:40:59.505Z,65.20
2018-09-04T12:41:59.424Z,66.96
2018-09-04T12:43:52.323Z,65.40
2018-09-04T12:44:52.270Z,66.76
2018-09-04T12:46:45.032Z,65.53
2018-09-04T12:47:44.944Z,66.21
2018-09-04T12:49:37.786Z,66.92
2018-09-04T12:50:37.684Z,67.44
2018-09-04T12:52:30.471Z,66.86
2018-09-04T12:53:30.453Z,66.60
2018-09-04T12:55:23.224Z,65.08
2018-09-04T12:56:23.164Z,65.04
2018-09-04T12:58:15.943Z,65.63
2018-09-04T12:59:15.879Z,65.20
2018-09-04T13:01:07.740Z,65.98
2018-09-04T13:02:07.664Z,66.63
2018-09-04T13:04:01.332Z,66.72
2018-09-04T13:05:01.251Z,67.80
2018-09-04T13:06:54.042Z,66.82
2018-09-04T13:07:54.000Z,66.37
2018-09-04T13:09:46.848Z,65.95
2018-09-04T13:10:46.729Z,66.14
2018-09-04T13:12:39.538Z,66.92
2018-09-04T13:13:39.493Z,66.72
2018-09-04T13:15:32.308Z,65.59
2018-09-04T13:16:32.225Z,65.69
2018-09-04T13:18:25.039Z,64.81
2018-09-04T13:19:24.970Z,65.33
2018-09-04T13:21:17.819Z,65.53
2018-09-04T13:22:17.723Z,65.53
2018-09-04T13:24:10.514Z,65.30
2018-09-04T13:25:10.466Z,66.08
2018-09-04T13:27:03.260Z,67.02
2018-09-04T13:28:03.167Z,66.72
2018-09-04T13:29:56.102Z,67.21
2018-09-04T13:30:55.943Z,67.31
2018-09-04T13:32:48.733Z,68.08
2018-09-04T13:33:48.673Z,67.80
2018-09-04T13:35:41.550Z,67.41
2018-09-04T13:36:41.504Z,68.77
2018-09-04T13:38:34.301Z,66.27
2018-09-04T13:39:34.269Z,66.72
2018-09-04T13:41:27.040Z,66.37
2018-09-04T13:42:26.954Z,65.59
2018-09-04T13:44:19.774Z,65.40
2018-09-04T13:45:19.681Z,66.11
2018-09-04T13:47:12.477Z,64.91
2018-09-04T13:48:12.404Z,64.53
2018-09-04T13:50:05.214Z,64.78
2018-09-04T13:51:05.159Z,65.33
2018-09-04T13:52:57.995Z,66.82
2018-09-04T13:53:57.916Z,65.72
2018-09-04T13:55:50.805Z,66.79
2018-09-04T13:56:50.648Z,67.28
2018-09-04T13:58:43.444Z,66.79
2018-09-04T13:59:43.391Z,66.21
2018-09-04T14:01:36.148Z,66.14
2018-09-04T14:02:36.074Z,65.37
2018-09-04T14:04:28.951Z,65.43
2018-09-04T14:05:28.803Z,65.43
2018-09-04T14:07:21.607Z,65.72
2018-09-04T14:08:21.549Z,65.43
2018-09-04T14:10:14.375Z,66.63
2018-09-04T14:11:14.320Z,66.14
2018-09-04T14:13:07.078Z,66.14
2018-09-04T14:14:07.016Z,65.85
2018-09-04T14:15:59.919Z,65.47
2018-09-04T14:16:59.978Z,64.69
2018-09-04T14:18:52.585Z,64.59
2018-09-04T14:19:52.542Z,65.37
2018-09-04T14:21:45.320Z,64.49
2018-09-04T14:22:45.254Z,64.30
2018-09-04T14:24:38.140Z,64.98
2018-09-04T14:25:38.110Z,65.24
2018-09-04T14:27:30.970Z,64.88
2018-09-04T14:28:45.811Z,64.46
2018-09-04T14:30:23.682Z,64.85
2018-09-04T14:31:23.543Z,63.78
2018-09-04T14:33:16.353Z,64.43
2018-09-04T14:34:16.288Z,64.62
2018-09-04T14:36:09.180Z,64.82
2018-09-04T14:37:09.157Z,65.11
2018-09-04T14:39:01.946Z,64.65
2018-09-04T14:40:01.799Z,64.75
2018-09-04T14:41:54.566Z,63.65
2018-09-04T14:42:54.561Z,62.98
2018-09-04T14:44:47.347Z,63.75
2018-09-04T14:45:47.252Z,63.36
2018-09-04T14:47:40.223Z,64.04
2018-09-04T14:48:40.026Z,62.49
2018-09-04T14:50:32.790Z,65.40
2018-09-04T14:51:32.712Z,65.40
2018-09-04T14:53:25.521Z,63.88
2018-09-04T14:54:25.460Z,65.14
2018-09-04T14:56:18.372Z,63.56
2018-09-04T14:57:18.230Z,64.40
2018-09-04T14:59:10.992Z,63.72
2018-09-04T15:00:10.956Z,63.49
2018-09-04T15:02:03.738Z,64.75
2018-09-04T15:03:03.639Z,65.24
2018-09-04T15:04:56.484Z,64.37
2018-09-04T15:05:56.402Z,63.69
2018-09-04T15:07:49.246Z,65.47
2018-09-04T15:08:49.178Z,64.40
2018-09-04T15:10:41.994Z,62.07
2018-09-04T15:11:41.927Z,62.65
2018-09-04T15:13:34.851Z,61.88
2018-09-04T15:14:34.758Z,61.39
2018-09-04T15:16:27.568Z,63.13
2018-09-04T15:17:27.485Z,62.95
2018-09-04T15:19:20.265Z,60.61
2018-09-04T15:20:20.224Z,60.71
2018-09-04T15:22:13.030Z,59.26
2018-09-04T15:23:12.949Z,59.45
2018-09-04T15:25:05.753Z,61.55
2018-09-04T15:26:05.682Z,62.43
2018-09-04T15:27:58.807Z,61.49
2018-09-04T15:28:58.582Z,62.85
2018-09-04T15:30:51.480Z,60.10
2018-09-04T15:31:51.407Z,62.33
2018-09-04T15:33:45.686Z,60.49
2018-09-04T15:34:45.493Z,61.75
2018-09-04T15:36:38.787Z,61.36
2018-09-04T15:37:38.548Z,61.75
2018-09-04T15:39:31.343Z,60.03
2018-09-04T15:40:31.294Z,58.74
2018-09-04T15:42:24.161Z,59.23
2018-09-04T15:43:24.042Z,59.81
2018-09-04T15:45:16.840Z,60.88
2018-09-04T15:46:16.762Z,60.30
2018-09-04T15:48:09.553Z,60.65
2018-09-04T15:49:09.480Z,60.07
2018-09-04T15:51:02.430Z,60.55
2018-09-04T15:52:02.327Z,60.94
2018-09-04T15:53:55.136Z,61.72
2018-09-04T15:54:55.064Z,62.49
2018-09-04T15:56:47.965Z,61.14
2018-09-04T15:57:47.805Z,62.30
2018-09-04T15:59:40.615Z,61.11
2018-09-04T16:00:40.541Z,62.27
2018-09-04T16:02:33.350Z,61.49
2018-09-04T16:03:33.321Z,62.66
2018-09-04T16:05:26.082Z,63.92
2018-09-04T16:06:26.012Z,64.11
2018-09-04T16:08:18.826Z,63.92
2018-09-04T16:09:18.753Z,63.04
2018-09-04T16:11:11.538Z,61.59
2018-09-04T16:12:11.506Z,61.98
2018-09-04T16:14:04.304Z,61.11
2018-09-04T16:15:04.163Z,61.49
2018-09-04T16:16:57.000Z,61.59
2018-09-04T16:17:56.949Z,61.21
2018-09-04T16:19:49.883Z,61.66
2018-09-04T16:20:49.658Z,60.88
2018-09-04T16:22:42.558Z,61.36
2018-09-04T16:23:42.474Z,60.98
2018-09-04T16:25:35.412Z,62.53
2018-09-04T16:26:35.412Z,62.53
2018-09-04T16:28:28.168Z,63.01
2018-09-04T16:29:28.077Z,63.21
2018-09-04T16:31:20.997Z,63.98
2018-09-04T16:32:20.856Z,64.66
2018-09-04T16:34:13.773Z,64.66
2018-09-04T16:35:13.631Z,64.34
2018-09-04T16:37:06.542Z,64.14
2018-09-04T16:38:06.474Z,64.14
2018-09-04T16:39:59.325Z,65.59
2018-09-04T16:40:59.264Z,66.27
2018-09-04T16:42:52.158Z,66.37
2018-09-04T16:43:52.075Z,65.30
2018-09-04T16:45:44.878Z,65.08
2018-09-04T16:46:44.815Z,65.08
2018-09-04T16:48:37.746Z,65.95
2018-09-04T16:49:37.667Z,67.49
2018-09-04T16:51:30.501Z,67.59
2018-09-04T16:52:30.388Z,68.27
2018-09-04T16:54:23.179Z,67.01
2018-09-04T16:55:23.137Z,67.59
2018-09-04T16:57:15.968Z,67.36
2018-09-04T16:58:15.829Z,67.36
2018-09-04T17:00:08.734Z,67.94
2018-09-04T17:01:08.659Z,69.10
2018-09-04T17:03:01.621Z,68.24
2018-09-04T17:04:01.518Z,69.10
2018-09-04T17:05:54.366Z,67.56
2018-09-04T17:06:54.268Z,67.27
2018-09-04T17:08:47.086Z,67.82
2018-09-04T17:09:46.995Z,67.62
2018-09-04T17:11:39.827Z,68.88
2018-09-04T17:12:39.724Z,68.40
2018-09-04T17:14:32.557Z,68.88
2018-09-04T17:15:32.527Z,69.07
2018-09-04T17:17:25.309Z,69.26
2018-09-04T17:18:25.260Z,69.56
2018-09-04T17:20:18.043Z,69.36
2018-09-04T17:21:18.002Z,69.23
2018-09-04T17:23:10.770Z,70.39
2018-09-04T17:24:10.732Z,71.26
2018-09-04T17:26:03.542Z,71.06
2018-09-04T17:27:03.423Z,70.29
2018-09-04T17:28:56.224Z,70.74
2018-09-04T17:29:56.159Z,71.22
2018-09-04T17:31:48.983Z,72.77
2018-09-04T17:32:49.013Z,72.48
2018-09-04T17:34:41.693Z,71.90
2018-09-04T17:35:41.677Z,72.48
2018-09-04T17:37:34.476Z,72.86
2018-09-04T17:38:34.422Z,73.83
2018-09-04T17:40:27.235Z,74.66
2018-09-04T17:41:27.219Z,73.99
2018-09-04T17:43:20.010Z,74.85
2018-09-04T17:44:19.937Z,74.57
2018-09-04T17:46:13.557Z,74.85
2018-09-04T17:47:13.515Z,75.30
2018-09-04T17:49:06.315Z,75.68
2018-09-04T17:50:06.233Z,76.93
2018-09-04T17:51:59.046Z,77.51
2018-09-04T17:52:58.966Z,76.75
2018-09-04T17:54:51.889Z,77.51
2018-09-04T17:55:51.723Z,77.76
2018-09-04T17:57:44.515Z,77.86
2018-09-04T17:58:44.450Z,78.15
2018-09-04T18:00:37.304Z,79.02
2018-09-04T18:01:37.180Z,79.98
2018-09-04T18:03:30.010Z,81.01
2018-09-04T18:04:29.966Z,80.71
2018-09-04T18:06:22.885Z,80.81
2018-09-04T18:07:22.809Z,80.81
2018-09-04T18:09:15.620Z,81.20
2018-09-04T18:10:15.526Z,81.87
2018-09-04T18:12:08.500Z,81.87
2018-09-04T18:13:08.319Z,82.45
2018-09-04T18:15:01.121Z,83.51
2018-09-04T18:16:01.048Z,83.03
2018-09-04T18:17:53.865Z,83.80
2018-09-04T18:18:53.830Z,83.89
2018-09-04T18:20:46.582Z,84.38
2018-09-04T18:21:46.513Z,84.66
2018-09-04T18:23:39.299Z,86.30
2018-09-04T18:24:39.223Z,86.78
2018-09-04T18:26:32.009Z,87.46
2018-09-04T18:27:31.974Z,87.94
2018-09-04T18:29:24.748Z,88.61
2018-09-04T18:30:24.683Z,89.29
2018-09-04T18:32:17.448Z,89.96